Time;durP1;ratioP1;P1;durP2;ratioP2;P2;SDS_P1;SDS_P2;PMS_P1;PMS_P2;Temp;Humidity;BMP_temperature;BMP_pressure;BME280_temperature;BME280_humidity;BME280_pressure;Samples;Min_cycle;Max_cycle;Signal;HPM_P1;HPM_P2
2022/10/22 00:02:19;;;;;;;2.75;1.77;;;14.60;99.90;;;;;;10549848;28;20055;-66
2022/10/22 00:07:20;;;;;;;2.10;1.70;;;14.60;99.90;;;;;;10507037;28;20484;-65
2022/10/22 00:12:21;;;;;;;3.55;1.60;;;14.60;99.90;;;;;;10546190;28;20019;-65
2022/10/22 00:17:22;;;;;;;2.58;1.65;;;14.60;99.90;;;;;;10523827;28;21060;-65
2022/10/22 00:22:22;;;;;;;3.05;1.88;;;14.60;99.90;;;;;;10538278;28;20383;-66
2022/10/22 00:27:24;;;;;;;3.42;1.95;;;14.60;99.90;;;;;;10511128;28;20161;-66
2022/10/22 00:32:24;;;;;;;2.60;1.98;;;14.60;99.90;;;;;;10541874;28;20047;-66
2022/10/22 00:37:25;;;;;;;2.63;2.00;;;14.60;99.90;;;;;;10548219;28;20042;-65
2022/10/22 00:42:30;;;;;;;2.60;1.88;;;14.50;99.90;;;;;;10543325;28;20032;-66
2022/10/22 00:47:42;;;;;;;2.30;1.60;;;14.50;99.90;;;;;;10545464;28;20110;-65
2022/10/22 00:52:43;;;;;;;2.80;1.80;;;14.50;99.90;;;;;;10544085;28;20111;-66
2022/10/22 00:57:45;;;;;;;2.60;1.90;;;14.50;99.90;;;;;;10542666;28;20042;-65
2022/10/22 01:02:48;;;;;;;2.50;1.75;;;14.50;99.90;;;;;;10543735;28;20040;-66
2022/10/22 01:07:51;;;;;;;4.00;1.70;;;14.50;99.90;;;;;;10544786;28;20489;-66
2022/10/22 01:13:16;;;;;;;3.17;1.70;;;14.50;99.90;;;;;;10545860;28;20024;-66
2022/10/22 01:18:40;;;;;;;3.45;2.53;;;14.50;99.90;;;;;;10549353;28;20047;-66
2022/10/22 01:23:52;;;;;;;2.88;1.90;;;14.50;99.90;;;;;;10529760;28;20020;-65
2022/10/22 01:29:14;;;;;;;3.03;1.70;;;14.50;99.90;;;;;;10540293;28;20023;-66
2022/10/22 01:34:17;;;;;;;2.85;1.77;;;14.50;99.90;;;;;;10537180;28;20081;-65
2022/10/22 01:39:18;;;;;;;1.88;1.52;;;14.40;99.90;;;;;;10539962;28;20463;-66
2022/10/22 01:44:37;;;;;;;2.83;1.70;;;14.40;99.90;;;;;;10538870;28;20472;-66
2022/10/22 01:49:53;;;;;;;;;;;14.40;99.90;;;;;;10543158;28;20024;-65
2022/10/22 01:55:26;;;;;;;4.85;2.60;;;14.40;99.90;;;;;;10541919;28;20368;-65
2022/10/22 02:00:27;;;;;;;2.20;1.60;;;14.40;99.90;;;;;;10548947;28;20124;-66
2022/10/22 02:05:35;;;;;;;2.90;1.80;;;14.40;99.90;;;;;;10533371;28;20142;-66
2022/10/22 02:10:38;;;;;;;3.22;2.22;;;14.40;99.90;;;;;;10551254;28;20416;-66
2022/10/22 02:15:40;;;;;;;2.75;1.77;;;14.40;99.90;;;;;;10547332;28;20487;-65
2022/10/22 02:20:41;;;;;;;3.00;1.90;;;14.40;99.90;;;;;;10546316;28;20373;-65
2022/10/22 02:25:46;;;;;;;3.47;2.25;;;14.40;99.90;;;;;;10545748;28;20027;-65
2022/10/22 02:30:53;;;;;;;4.82;2.17;;;14.40;99.90;;;;;;10549691;28;20024;-65
2022/10/22 02:35:55;;;;;;;2.45;1.90;;;14.30;99.90;;;;;;10541487;28;20048;-66
2022/10/22 02:40:56;;;;;;;2.10;1.60;;;14.30;99.90;;;;;;10546224;28;20021;-66
2022/10/22 02:45:57;;;;;;;3.05;1.90;;;14.30;99.90;;;;;;10547787;28;20411;-65
2022/10/22 02:50:57;;;;;;;2.90;2.03;;;14.30;99.90;;;;;;10554730;28;20023;-66
2022/10/22 02:55:58;;;;;;;2.60;1.80;;;14.30;99.90;;;;;;10549079;28;20503;-65
2022/10/22 03:00:59;;;;;;;2.80;2.08;;;14.30;99.90;;;;;;10545023;28;20046;-65
2022/10/22 03:06:00;;;;;;;3.22;2.22;;;14.30;99.90;;;;;;10552567;28;20279;-66
2022/10/22 03:11:00;;;;;;;2.47;1.67;;;14.30;99.90;;;;;;10553667;28;20027;-65
2022/10/22 03:16:01;;;;;;;2.55;1.80;;;14.30;99.90;;;;;;10547300;28;20035;-66
2022/10/22 03:21:08;;;;;;;2.22;2.03;;;14.30;99.90;;;;;;10543303;28;20051;-65
2022/10/22 03:26:12;;;;;;;3.70;2.20;;;14.30;99.90;;;;;;10549163;28;20039;-65
2022/10/22 03:31:13;;;;;;;2.25;1.85;;;14.30;99.90;;;;;;10548252;28;20043;-65
2022/10/22 03:36:13;;;;;;;3.92;2.00;;;14.30;99.90;;;;;;10537168;28;20032;-65
2022/10/22 03:41:14;;;;;;;4.00;1.90;;;14.20;99.90;;;;;;10545862;28;20067;-65
2022/10/22 03:46:15;;;;;;;4.00;2.08;;;14.20;99.90;;;;;;10542645;28;20043;-65
2022/10/22 03:51:16;;;;;;;4.82;2.28;;;14.20;99.90;;;;;;10546765;28;20050;-65
2022/10/22 03:56:17;;;;;;;2.88;2.17;;;14.20;99.90;;;;;;10548872;28;20155;-66
2022/10/22 04:01:17;;;;;;;4.10;1.88;;;14.20;99.90;;;;;;10547935;28;20039;-65
2022/10/22 04:06:18;;;;;;;4.03;1.92;;;14.20;99.90;;;;;;10549564;28;20123;-65
2022/10/22 04:11:19;;;;;;;2.63;1.92;;;14.20;99.90;;;;;;10550362;28;20224;-65
2022/10/22 04:16:21;;;;;;;3.42;2.03;;;14.20;99.90;;;;;;10547508;28;20036;-65
2022/10/22 04:21:22;;;;;;;5.30;2.03;;;14.20;99.90;;;;;;10543203;28;20106;-65
2022/10/22 04:26:23;;;;;;;6.30;2.25;;;14.20;99.90;;;;;;10540217;28;20391;-65
2022/10/22 04:31:25;;;;;;;3.53;2.40;;;14.20;99.90;;;;;;10540348;28;20078;-65
2022/10/22 04:36:27;;;;;;;3.83;2.00;;;14.10;99.90;;;;;;10544885;28;20728;-65
2022/10/22 04:41:31;;;;;;;2.83;2.15;;;14.10;99.90;;;;;;10550227;28;20494;-65
2022/10/22 04:46:33;;;;;;;2.85;2.03;;;14.10;99.90;;;;;;10541052;28;20105;-66
2022/10/22 04:51:34;;;;;;;4.40;2.80;;;14.10;99.90;;;;;;10549265;28;20031;-65
2022/10/22 04:56:34;;;;;;;3.35;2.45;;;14.10;99.90;;;;;;10548356;28;20428;-65
2022/10/22 05:01:38;;;;;;;2.85;2.15;;;14.10;99.90;;;;;;10505654;28;20028;-65
2022/10/22 05:06:38;;;;;;;3.72;2.42;;;14.10;99.90;;;;;;10502164;28;20472;-65
2022/10/22 05:11:44;;;;;;;4.07;2.28;;;14.10;99.90;;;;;;10504536;28;20122;-66
2022/10/22 05:16:46;;;;;;;4.22;2.53;;;14.10;99.90;;;;;;10508806;28;20602;-65
2022/10/22 05:21:47;;;;;;;3.60;2.30;;;14.10;99.90;;;;;;10505331;28;20028;-66
2022/10/22 05:26:52;;;;;;;3.88;2.30;;;14.10;99.90;;;;;;10481743;28;20029;-65
2022/10/22 05:31:53;;;;;;;4.25;2.10;;;14.10;99.90;;;;;;10499997;28;20017;-65
2022/10/22 05:36:53;;;;;;;4.22;2.45;;;14.10;99.90;;;;;;10500748;28;20485;-65
2022/10/22 05:41:54;;;;;;;3.10;2.20;;;14.10;99.90;;;;;;10502684;28;20029;-65
2022/10/22 05:46:55;;;;;;;2.70;1.92;;;14.10;99.90;;;;;;10503397;28;20107;-65
2022/10/22 05:51:55;;;;;;;4.80;2.60;;;14.10;99.90;;;;;;10499706;28;20271;-65
2022/10/22 05:56:56;;;;;;;3.45;2.15;;;14.10;99.90;;;;;;10501601;28;20273;-65
2022/10/22 06:01:57;;;;;;;5.25;2.03;;;14.10;99.90;;;;;;10494484;28;20063;-65
2022/10/22 06:06:58;;;;;;;2.28;1.70;;;14.10;99.90;;;;;;10528510;28;20028;-65
2022/10/22 06:11:59;;;;;;;1.95;1.63;;;14.10;99.90;;;;;;10530996;28;20016;-65
2022/10/22 06:17:00;;;;;;;4.95;2.47;;;14.10;99.90;;;;;;10519629;28;20040;-65
2022/10/22 06:22:00;;;;;;;3.40;1.98;;;14.10;99.90;;;;;;10532986;28;20024;-66
2022/10/22 06:27:01;;;;;;;4.63;2.05;;;14.10;99.90;;;;;;10541615;28;20028;-66
2022/10/22 06:32:02;;;;;;;2.88;2.00;;;14.10;99.90;;;;;;10532547;28;20026;-65
2022/10/22 06:37:05;;;;;;;5.25;2.15;;;14.10;99.90;;;;;;10495287;28;20320;-66
2022/10/22 06:42:06;;;;;;;2.72;1.60;;;14.20;99.90;;;;;;10452074;28;20116;-66
2022/10/22 06:47:07;;;;;;;3.08;2.10;;;14.20;99.90;;;;;;10459369;28;20074;-65
2022/10/22 06:52:07;;;;;;;3.78;2.00;;;14.20;99.90;;;;;;10462369;28;20528;-65
2022/10/22 06:57:08;;;;;;;5.18;2.10;;;14.20;99.90;;;;;;10461362;28;20142;-65
2022/10/22 07:02:09;;;;;;;5.07;2.20;;;14.20;99.90;;;;;;10459055;28;20145;-66
2022/10/22 07:07:10;;;;;;;2.40;1.83;;;14.20;99.90;;;;;;10463541;28;20577;-66
2022/10/22 07:12:11;;;;;;;4.30;2.05;;;14.20;99.90;;;;;;10428894;28;20305;-65
2022/10/22 07:17:12;;;;;;;3.13;2.00;;;14.20;99.90;;;;;;10454139;28;20467;-65
2022/10/22 07:22:12;;;;;;;3.55;1.98;;;14.20;99.90;;;;;;10446624;28;20139;-65
2022/10/22 07:27:13;;;;;;;4.20;2.17;;;14.20;99.90;;;;;;10454516;28;20403;-66
2022/10/22 07:32:14;;;;;;;4.10;2.55;;;14.20;99.90;;;;;;10418623;28;20419;-65
2022/10/22 07:37:15;;;;;;;3.40;1.90;;;14.20;99.90;;;;;;10420413;28;20047;-65
2022/10/22 07:42:15;;;;;;;3.50;1.95;;;14.20;99.90;;;;;;10448280;28;20400;-65
2022/10/22 07:47:19;;;;;;;4.82;2.05;;;14.20;99.90;;;;;;10430147;28;20493;-65
2022/10/22 07:52:20;;;;;;;5.22;2.30;;;14.20;99.90;;;;;;10453324;28;20487;-66
2022/10/22 07:57:21;;;;;;;4.00;1.73;;;14.30;99.90;;;;;;10452660;28;20143;-66
2022/10/22 08:02:21;;;;;;;6.30;2.25;;;14.30;99.90;;;;;;10466306;28;20046;-65
2022/10/22 08:07:22;;;;;;;4.45;2.58;;;14.40;99.90;;;;;;10434838;28;20392;-67
2022/10/22 08:12:23;;;;;;;2.90;1.92;;;14.40;99.90;;;;;;10453545;28;20055;-66
2022/10/22 08:17:24;;;;;;;7.55;1.98;;;14.50;99.90;;;;;;10452916;28;20210;-65
2022/10/22 08:22:25;;;;;;;5.93;2.15;;;14.60;99.90;;;;;;10455212;28;20037;-65
2022/10/22 08:27:25;;;;;;;5.63;2.00;;;14.60;99.90;;;;;;10454527;28;20551;-64
2022/10/22 08:32:26;;;;;;;4.20;2.10;;;14.70;99.90;;;;;;10446928;28;20051;-68
2022/10/22 08:37:27;;;;;;;6.03;1.85;;;14.80;99.90;;;;;;10439583;28;20417;-64
2022/10/22 08:42:42;;;;;;;6.07;2.42;;;14.90;99.90;;;;;;10446533;28;20613;-65
2022/10/22 08:47:43;;;;;;;4.38;2.00;;;15.00;99.90;;;;;;10453664;28;20047;-66
2022/10/22 08:52:47;;;;;;;3.97;1.80;;;15.00;99.90;;;;;;10431581;28;20458;-65
2022/10/22 08:58:14;;;;;;;3.78;1.98;;;15.00;99.90;;;;;;10453877;28;20079;-65
2022/10/22 09:03:15;;;;;;;3.78;2.17;;;15.00;99.90;;;;;;10448972;28;20075;-66
2022/10/22 09:08:17;;;;;;;3.72;2.08;;;15.00;99.90;;;;;;10448325;28;20857;-64
2022/10/22 09:13:21;;;;;;;4.88;1.88;;;15.00;99.90;;;;;;10443220;28;20216;-62
2022/10/22 09:19:00;;;;;;;6.35;1.98;;;15.10;99.90;;;;;;10453287;28;20036;-65
2022/10/22 09:24:27;;;;;;;4.50;2.13;;;15.00;99.90;;;;;;10307982;28;20156;-65
2022/10/22 09:29:33;;;;;;;3.13;1.80;;;15.00;99.90;;;;;;10428275;28;20310;-66
2022/10/22 09:34:34;;;;;;;7.50;2.20;;;15.10;99.90;;;;;;10426756;28;20330;-66
2022/10/22 09:39:42;;;;;;;3.17;1.85;;;15.00;99.90;;;;;;10455217;28;20447;-65
2022/10/22 09:44:48;;;;;;;5.50;1.70;;;15.00;99.90;;;;;;10462697;28;20022;-65
2022/10/22 09:50:02;;;;;;;3.90;1.90;;;15.00;99.90;;;;;;10511082;22;20611;-66
2022/10/22 09:55:23;;;;;;;9.60;3.15;;;15.00;99.90;;;;;;10367937;28;20035;-65
2022/10/22 10:00:25;;;;;;;5.20;1.70;;;15.00;99.90;;;;;;10392038;28;20036;-67
2022/10/22 10:05:32;;;;;;;5.43;2.20;;;15.00;99.90;;;;;;10385302;28;20024;-65
2022/10/22 10:10:45;;;;;;;6.93;2.40;;;14.90;99.90;;;;;;10382962;28;20032;-64
2022/10/22 10:15:57;;;;;;;11.43;3.58;;;15.10;99.90;;;;;;10373908;28;20027;-65
2022/10/22 10:21:20;;;;;;;9.70;3.63;;;15.20;99.90;;;;;;10396392;28;20052;-65
2022/10/22 10:26:48;;;;;;;7.85;3.97;;;15.20;99.90;;;;;;10390097;28;20041;-64
2022/10/22 10:32:26;;;;;;;8.98;4.68;;;15.20;99.90;;;;;;10372062;28;20028;-64
2022/10/22 10:37:29;;;;;;;;;;;15.30;99.90;;;;;;10362767;28;20158;-64
2022/10/22 10:42:38;;;;;;;10.77;4.15;;;15.20;99.90;;;;;;10372096;28;19956;-63
2022/10/22 10:47:56;;;;;;;9.50;4.25;;;15.30;99.90;;;;;;10385347;28;20421;-64
2022/10/22 10:53:16;;;;;;;11.20;4.72;;;15.30;99.90;;;;;;10390365;28;20073;-64
2022/10/22 10:58:27;;;;;;;12.25;4.10;;;15.90;99.90;;;;;;10385906;28;20731;-64
2022/10/22 11:03:57;;;;;;;6.97;3.83;;;15.50;99.90;;;;;;10390701;28;20020;-67
2022/10/22 11:09:23;;;;;;;9.27;4.15;;;15.50;99.90;;;;;;10389759;28;20028;-66
2022/10/22 11:14:38;;;;;;;10.20;4.00;;;15.70;99.90;;;;;;10394668;28;20024;-63
2022/10/22 11:20:03;;;;;;;9.38;4.20;;;15.60;99.90;;;;;;10390597;28;20515;-63
2022/10/22 11:25:22;;;;;;;15.07;4.40;;;15.70;99.90;;;;;;10434726;28;20056;-62
2022/10/22 11:30:25;;;;;;;8.85;3.67;;;15.90;99.90;;;;;;10472596;28;20020;-63
2022/10/22 11:35:40;;;;;;;13.73;3.78;;;16.00;99.90;;;;;;10465020;28;20020;-65
2022/10/22 11:40:53;;;;;;;8.43;3.60;;;16.00;99.90;;;;;;10468214;28;20044;-62
2022/10/22 11:46:27;;;;;;;7.78;3.42;;;16.10;99.90;;;;;;10462219;28;20032;-63
2022/10/22 11:51:36;;;;;;;6.25;3.00;;;16.00;99.90;;;;;;10475679;28;20050;-64
2022/10/22 11:56:37;;;;;;;;;;;15.90;99.90;;;;;;10450591;28;20051;-63
2022/10/22 12:01:46;;;;;;;6.15;3.20;;;15.90;99.90;;;;;;10464800;28;19916;-62
2022/10/22 12:07:27;;;;;;;9.57;3.72;;;15.90;99.90;;;;;;10463381;28;20032;-64
2022/10/22 12:12:37;;;;;;;6.13;3.20;;;15.90;99.90;;;;;;10462958;28;20021;-62
2022/10/22 12:17:37;;;;;;;10.32;3.08;;;15.90;99.90;;;;;;10447921;28;20063;-62
2022/10/22 12:22:38;;;;;;;6.85;2.80;;;15.90;99.90;;;;;;10463646;28;20120;-63
2022/10/22 12:27:40;;;;;;;6.45;2.85;;;15.90;99.90;;;;;;10463625;28;20032;-66
2022/10/22 12:32:41;;;;;;;7.65;2.75;;;15.90;99.90;;;;;;10454861;28;20112;-62
2022/10/22 12:37:41;;;;;;;6.18;2.67;;;15.90;99.90;;;;;;10377591;28;20052;-62
2022/10/22 12:42:50;;;;;;;7.85;3.22;;;16.00;99.90;;;;;;10387877;28;20949;-63
2022/10/22 12:47:56;;;;;;;4.30;3.08;;;16.20;99.90;;;;;;10381230;28;20067;-62
2022/10/22 12:52:58;;;;;;;5.85;2.35;;;16.40;99.90;;;;;;10387036;28;21072;-62
2022/10/22 12:57:58;;;;;;;8.43;3.33;;;16.50;99.90;;;;;;10377147;28;20552;-62
2022/10/22 13:03:05;;;;;;;5.38;2.50;;;16.50;99.90;;;;;;10390059;28;20027;-62
2022/10/22 13:08:15;;;;;;;8.45;2.80;;;16.50;99.90;;;;;;10401898;28;20032;-62
2022/10/22 13:13:35;;;;;;;8.73;3.10;;;16.50;99.90;;;;;;10393018;28;20770;-62
2022/10/22 13:18:35;;;;;;;5.57;2.55;;;16.40;99.90;;;;;;10399483;28;20461;-62
2022/10/22 13:23:37;;;;;;;6.32;2.75;;;16.40;99.90;;;;;;10357245;28;20515;-61
2022/10/22 13:28:39;;;;;;;5.43;2.28;;;16.30;99.90;;;;;;10398648;28;20385;-67
2022/10/22 13:33:42;;;;;;;3.40;2.58;;;16.30;99.90;;;;;;10418046;28;20032;-62
2022/10/22 13:38:43;;;;;;;9.57;3.20;;;16.10;99.90;;;;;;10399873;28;20583;-63
2022/10/22 13:43:44;;;;;;;7.85;2.90;;;16.20;99.90;;;;;;10395753;28;21002;-61
2022/10/22 13:48:46;;;;;;;8.48;2.50;;;16.10;99.90;;;;;;10397912;28;20033;-60
2022/10/22 13:53:52;;;;;;;4.13;2.40;;;16.10;99.90;;;;;;10405650;28;20024;-61
2022/10/22 13:58:52;;;;;;;7.00;2.80;;;16.00;99.90;;;;;;10393208;28;20525;-63
2022/10/22 14:03:58;;;;;;;6.00;2.70;;;16.00;99.90;;;;;;10408231;28;20348;-61
2022/10/22 14:09:02;;;;;;;5.25;2.42;;;16.10;99.90;;;;;;10402454;28;20188;-64
2022/10/22 14:14:07;;;;;;;8.23;2.88;;;16.10;99.90;;;;;;10398976;28;20352;-62
2022/10/22 14:19:15;;;;;;;5.07;3.30;;;16.20;99.90;;;;;;10404305;28;20044;-62
2022/10/22 14:24:15;;;;;;;6.60;2.93;;;16.30;99.90;;;;;;10391404;28;20328;-59
2022/10/22 14:29:16;;;;;;;4.60;2.40;;;16.40;99.90;;;;;;10395972;28;20377;-66
2022/10/22 14:34:17;;;;;;;7.43;3.47;;;16.40;99.90;;;;;;10405591;28;20609;-62
2022/10/22 14:39:18;;;;;;;6.07;2.58;;;16.40;99.90;;;;;;10374482;28;20125;-69
2022/10/22 14:44:18;;;;;;;5.93;1.88;;;16.40;99.90;;;;;;10374986;28;20040;-64
2022/10/22 14:49:19;;;;;;;5.55;1.73;;;16.50;99.90;;;;;;10396668;28;20052;-63
2022/10/22 14:54:20;;;;;;;7.43;1.98;;;16.50;99.90;;;;;;10400352;28;20032;-63
2022/10/22 14:59:20;;;;;;;5.47;1.70;;;16.60;99.90;;;;;;10393344;28;20592;-63
2022/10/22 15:04:21;;;;;;;9.38;2.20;;;16.60;99.90;;;;;;10401374;28;20556;-63
2022/10/22 15:09:23;;;;;;;5.18;1.92;;;16.50;99.90;;;;;;10390779;28;20068;-62
2022/10/22 15:14:24;;;;;;;6.75;1.88;;;16.50;99.90;;;;;;10395143;28;20032;-63
2022/10/22 15:19:25;;;;;;;7.20;1.92;;;16.40;99.90;;;;;;10372786;28;20037;-63
2022/10/22 15:24:25;;;;;;;5.05;1.50;;;16.40;99.90;;;;;;10387370;28;20024;-63
2022/10/22 15:29:26;;;;;;;6.57;1.88;;;16.30;99.90;;;;;;10391071;28;20227;-63
2022/10/22 15:34:29;;;;;;;9.18;1.60;;;16.30;99.90;;;;;;10404632;28;20102;-63
2022/10/22 15:39:30;;;;;;;4.18;1.98;;;16.20;99.90;;;;;;10391476;28;20182;-63
2022/10/22 15:44:32;;;;;;;6.07;1.63;;;16.20;99.90;;;;;;10394447;28;20095;-63
2022/10/22 15:49:35;;;;;;;7.13;2.10;;;16.20;99.90;;;;;;10395491;28;20230;-62
2022/10/22 15:54:35;;;;;;;4.63;1.67;;;16.10;99.90;;;;;;10392627;28;20296;-62
2022/10/22 15:59:36;;;;;;;7.60;1.80;;;16.10;99.90;;;;;;10393068;28;20151;-62
2022/10/22 16:04:37;;;;;;;5.78;1.40;;;16.10;99.90;;;;;;10405631;28;20028;-62
2022/10/22 16:09:38;;;;;;;4.38;1.50;;;16.00;99.90;;;;;;10389964;28;20485;-62
2022/10/22 16:14:39;;;;;;;7.63;1.77;;;16.00;99.90;;;;;;10393117;28;20028;-63
2022/10/22 16:19:40;;;;;;;8.50;1.38;;;15.90;99.90;;;;;;10391181;28;20883;-63
2022/10/22 16:24:40;;;;;;;4.30;1.40;;;15.90;99.90;;;;;;10392126;28;20043;-63
2022/10/22 16:29:43;;;;;;;5.95;1.80;;;15.90;99.90;;;;;;10389799;28;20074;-63
2022/10/22 16:34:44;;;;;;;5.65;2.03;;;15.80;99.90;;;;;;10402036;28;20028;-63
2022/10/22 16:39:45;;;;;;;5.45;1.30;;;15.80;99.90;;;;;;10378326;28;20040;-62
2022/10/22 16:44:46;;;;;;;3.92;1.40;;;15.80;99.90;;;;;;10387586;28;20389;-62
2022/10/22 16:49:46;;;;;;;3.15;1.50;;;15.80;99.90;;;;;;10391507;28;20325;-63
2022/10/22 16:54:47;;;;;;;4.07;1.20;;;15.70;99.90;;;;;;10446236;28;20028;-63
2022/10/22 16:59:48;;;;;;;5.68;1.38;;;15.70;99.90;;;;;;10459642;28;20123;-63
2022/10/22 17:04:49;;;;;;;6.80;1.60;;;15.70;99.90;;;;;;10462963;28;20079;-63
2022/10/22 17:09:50;;;;;;;4.40;1.55;;;15.60;99.90;;;;;;10456521;28;20102;-63
2022/10/22 17:14:50;;;;;;;8.07;2.08;;;15.50;99.90;;;;;;10466668;28;20036;-63
2022/10/22 17:19:51;;;;;;;6.90;1.60;;;15.50;99.90;;;;;;10465162;28;20119;-63
2022/10/22 17:25:34;;;;;;;7.45;1.60;;;15.50;99.90;;;;;;10457585;28;20033;-63
2022/10/22 17:30:39;;;;;;;6.10;1.95;;;15.50;99.90;;;;;;10429380;28;20067;-63
2022/10/22 17:35:40;;;;;;;8.02;2.10;;;15.50;99.90;;;;;;10465143;28;20063;-64
2022/10/22 17:40:41;;;;;;;5.50;1.90;;;15.40;99.90;;;;;;10464707;28;20131;-64
2022/10/22 17:45:41;;;;;;;7.30;1.90;;;15.40;99.90;;;;;;10459479;28;20025;-65
2022/10/22 17:50:42;;;;;;;5.38;1.90;;;15.40;99.90;;;;;;10460264;28;20066;-63
2022/10/22 17:55:43;;;;;;;5.78;1.75;;;15.40;99.90;;;;;;10458667;28;20512;-62
2022/10/22 18:00:43;;;;;;;5.63;1.52;;;15.40;99.90;;;;;;10459317;28;20062;-62
2022/10/22 18:05:44;;;;;;;4.85;2.13;;;15.30;99.90;;;;;;10460552;28;20024;-62
2022/10/22 18:10:45;;;;;;;4.85;1.98;;;15.40;99.90;;;;;;10451736;28;20445;-62
2022/10/22 18:15:53;;;;;;;8.50;2.38;;;15.30;99.90;;;;;;10454334;28;20037;-63
2022/10/22 18:20:54;;;;;;;4.90;1.90;;;15.30;99.90;;;;;;10464175;28;20033;-63
2022/10/22 18:25:55;;;;;;;6.00;2.92;;;15.30;99.90;;;;;;10446445;28;20025;-62
2022/10/22 18:30:55;;;;;;;12.75;3.90;;;15.20;99.90;;;;;;10457821;28;20029;-63
2022/10/22 18:36:01;;;;;;;7.07;2.80;;;15.20;99.90;;;;;;10459645;28;20401;-62
2022/10/22 18:41:02;;;;;;;6.32;2.53;;;15.20;99.90;;;;;;10466041;28;20043;-63
2022/10/22 18:46:06;;;;;;;7.53;2.40;;;15.20;99.90;;;;;;10462161;28;20477;-63
2022/10/22 18:51:09;;;;;;;6.93;2.92;;;15.20;99.90;;;;;;10450203;28;20488;-63
2022/10/22 18:56:11;;;;;;;5.97;3.03;;;15.20;99.90;;;;;;10472713;28;20028;-62
2022/10/22 19:01:14;;;;;;;10.50;3.15;;;15.10;99.90;;;;;;10471029;28;20040;-63
2022/10/22 19:06:23;;;;;;;4.93;2.90;;;15.10;99.90;;;;;;10470784;28;20029;-62
2022/10/22 19:11:23;;;;;;;;;;;15.10;99.90;;;;;;10469754;28;20119;-62
2022/10/22 19:16:25;;;;;;;10.77;3.60;;;15.10;99.90;;;;;;10471123;28;19908;-63
2022/10/22 19:21:26;;;;;;;4.78;3.20;;;15.00;99.90;;;;;;10470621;28;20450;-62
2022/10/22 19:26:28;;;;;;;6.13;3.13;;;15.00;99.90;;;;;;10471634;28;20033;-62
2022/10/22 19:31:30;;;;;;;4.72;2.90;;;15.00;99.90;;;;;;10466869;28;20051;-63
2022/10/22 19:36:31;;;;;;;5.78;2.90;;;15.00;99.90;;;;;;10469342;28;20024;-63
2022/10/22 19:41:32;;;;;;;6.53;2.97;;;15.00;99.90;;;;;;10464404;28;20123;-62
2022/10/22 19:46:33;;;;;;;6.90;3.17;;;15.00;99.90;;;;;;10463346;28;20107;-62
2022/10/22 19:51:34;;;;;;;4.82;2.97;;;15.00;99.90;;;;;;10465133;28;20052;-62
2022/10/22 19:56:36;;;;;;;6.90;2.72;;;15.00;99.90;;;;;;10469119;28;20111;-62
2022/10/22 20:01:37;;;;;;;5.95;2.92;;;14.90;99.90;;;;;;10463854;28;20083;-62
2022/10/22 20:06:38;;;;;;;7.05;3.10;;;14.90;99.90;;;;;;10467141;28;20159;-62
2022/10/22 20:11:39;;;;;;;7.03;3.08;;;14.90;99.90;;;;;;10460268;28;20473;-62
2022/10/22 20:16:42;;;;;;;7.45;3.30;;;14.90;99.90;;;;;;10460142;28;20020;-63
2022/10/22 20:21:44;;;;;;;9.88;3.10;;;14.90;99.90;;;;;;10458844;28;20254;-63
2022/10/22 20:26:46;;;;;;;10.88;3.33;;;14.90;99.90;;;;;;10461778;28;20468;-62
2022/10/22 20:31:47;;;;;;;9.00;3.08;;;14.90;99.90;;;;;;10469512;28;20075;-62
2022/10/22 20:36:47;;;;;;;6.78;3.03;;;14.80;99.90;;;;;;10459281;28;20120;-62
2022/10/22 20:41:49;;;;;;;7.53;2.97;;;14.80;99.90;;;;;;10464462;28;20024;-64
2022/10/22 20:46:50;;;;;;;6.05;3.17;;;14.80;99.90;;;;;;10457629;28;20017;-63
2022/10/22 20:51:51;;;;;;;4.93;2.88;;;14.80;99.90;;;;;;10466899;28;20490;-63
2022/10/22 20:56:52;;;;;;;5.43;2.70;;;14.80;99.90;;;;;;10466088;28;20036;-62
2022/10/22 21:01:53;;;;;;;5.72;3.42;;;14.80;99.90;;;;;;10465234;28;20132;-66
2022/10/22 21:06:56;;;;;;;6.38;3.15;;;14.80;99.90;;;;;;10465684;28;20077;-63
2022/10/22 21:12:01;;;;;;;8.07;3.13;;;14.70;99.90;;;;;;10468157;28;20032;-63
2022/10/22 21:17:02;;;;;;;4.43;2.78;;;14.70;99.90;;;;;;10459511;28;20114;-63
2022/10/22 21:22:03;;;;;;;4.18;2.70;;;14.70;99.90;;;;;;10464060;28;20568;-63
2022/10/22 21:27:06;;;;;;;5.00;2.97;;;14.70;99.90;;;;;;10463047;28;20351;-67
2022/10/22 21:32:08;;;;;;;6.53;2.90;;;14.70;99.90;;;;;;10456795;28;20033;-62
2022/10/22 21:37:08;;;;;;;7.15;3.00;;;14.70;99.90;;;;;;10457736;28;20461;-63
2022/10/22 21:42:09;;;;;;;4.65;3.22;;;14.60;99.90;;;;;;10462428;28;20029;-62
2022/10/22 21:47:10;;;;;;;5.63;2.90;;;14.60;99.90;;;;;;10464339;28;20024;-62
2022/10/22 21:52:11;;;;;;;5.35;3.08;;;14.60;99.90;;;;;;10463119;28;20406;-63
2022/10/22 21:57:11;;;;;;;5.28;2.92;;;14.60;99.90;;;;;;10458199;28;20436;-62
2022/10/22 22:02:12;;;;;;;5.47;2.78;;;14.60;99.90;;;;;;10456382;28;20119;-62
2022/10/22 22:07:12;;;;;;;6.03;2.63;;;14.60;99.90;;;;;;10460499;28;20035;-62
2022/10/22 22:12:13;;;;;;;4.03;2.88;;;14.60;99.90;;;;;;10464445;28;20082;-65
2022/10/22 22:17:15;;;;;;;3.63;2.67;;;14.50;99.90;;;;;;10450142;28;20029;-63
2022/10/22 22:22:16;;;;;;;6.30;3.13;;;14.50;99.90;;;;;;10472391;28;20083;-68
2022/10/22 22:27:30;;;;;;;4.85;2.78;;;14.50;99.90;;;;;;10471627;28;20475;-62
2022/10/22 22:32:31;;;;;;;3.67;2.88;;;14.50;99.90;;;;;;10420331;28;20041;-63
2022/10/22 22:37:32;;;;;;;7.05;3.30;;;14.50;99.90;;;;;;10470913;28;20040;-63
2022/10/22 22:42:32;;;;;;;7.25;2.97;;;14.50;99.90;;;;;;10470187;28;20032;-63
2022/10/22 22:47:33;;;;;;;5.63;3.08;;;14.40;99.90;;;;;;10466111;28;20033;-65
2022/10/22 22:52:33;;;;;;;3.55;2.53;;;14.50;99.90;;;;;;10475203;28;20045;-66
2022/10/22 22:57:34;;;;;;;3.13;2.42;;;14.40;99.90;;;;;;10472778;28;20033;-62
2022/10/22 23:02:35;;;;;;;4.47;3.35;;;14.40;99.90;;;;;;10474730;28;20021;-62
2022/10/22 23:07:35;;;;;;;4.97;2.80;;;14.40;99.90;;;;;;10469423;28;20033;-62
2022/10/22 23:12:36;;;;;;;3.83;2.67;;;14.40;99.90;;;;;;10466915;28;20082;-62
2022/10/22 23:17:37;;;;;;;5.97;2.60;;;14.40;99.90;;;;;;10457708;28;20024;-64
2022/10/22 23:22:38;;;;;;;6.82;2.70;;;14.40;99.90;;;;;;10460853;28;20531;-62
2022/10/22 23:27:38;;;;;;;5.35;2.53;;;14.40;99.90;;;;;;10456503;28;20401;-63
2022/10/22 23:32:39;;;;;;;3.47;2.53;;;14.40;99.90;;;;;;10468664;28;20021;-65
2022/10/22 23:37:39;;;;;;;4.80;2.60;;;14.40;99.90;;;;;;10468597;28;20409;-63
2022/10/22 23:42:43;;;;;;;5.75;2.65;;;14.30;99.90;;;;;;10472354;28;20025;-63
2022/10/22 23:47:44;;;;;;;3.70;2.97;;;14.30;99.90;;;;;;10469958;28;20033;-65
2022/10/22 23:52:44;;;;;;;6.47;3.10;;;14.30;99.90;;;;;;10460414;28;20060;-64
2022/10/22 23:57:45;;;;;;;5.03;2.78;;;14.30;99.90;;;;;;10459622;28;20405;-63
